Time;durP1;ratioP1;P1;durP2;ratioP2;P2;SDS_P1;SDS_P2;PMS_P1;PMS_P2;Temp;Humidity;BMP_temperature;BMP_pressure;BME280_temperature;BME280_humidity;BME280_pressure;Samples;Min_cycle;Max_cycle;Signal;HPM_P1;HPM_P2
2023/06/16 00:00:46;;;;;;;6.70;4.03;;;;;;;22.28;42.44;100576.84;4121964;28;20060;-72
2023/06/16 00:02:49;;;;;;;6.53;3.97;;;;;;;22.24;42.54;100577.84;4120799;28;20072;-72
2023/06/16 00:04:53;;;;;;;8.70;4.03;;;;;;;22.20;42.56;100576.22;4117919;28;20481;-72
2023/06/16 00:06:58;;;;;;;7.00;4.32;;;;;;;22.14;42.42;100573.78;4103858;28;20043;-71
2023/06/16 00:09:01;;;;;;;8.40;4.38;;;;;;;22.15;41.34;100578.13;4119518;28;20031;-72
2023/06/16 00:11:04;;;;;;;11.70;5.30;;;;;;;22.18;39.16;100578.06;4117478;28;20047;-72
2023/06/16 00:13:07;;;;;;;10.77;5.68;;;;;;;22.23;38.46;100583.22;4103840;28;20433;-72
2023/06/16 00:15:11;;;;;;;8.98;4.93;;;;;;;22.26;38.05;100570.72;4122780;28;20493;-71
2023/06/16 00:17:14;;;;;;;9.70;4.78;;;;;;;22.36;37.53;100573.97;4099716;28;20047;-72
2023/06/16 00:19:17;;;;;;;10.73;4.93;;;;;;;22.43;37.17;100572.00;4102257;28;20176;-71
2023/06/16 00:21:27;;;;;;;10.52;4.95;;;;;;;22.42;37.23;100570.25;4119124;28;20030;-71
2023/06/16 00:23:29;;;;;;;7.65;4.25;;;;;;;22.39;36.97;100573.00;4117602;28;20489;-71
2023/06/16 00:25:32;;;;;;;7.93;4.88;;;;;;;22.40;36.61;100572.06;4102658;28;20063;-71
2023/06/16 00:27:36;;;;;;;8.52;4.50;;;;;;;22.33;37.00;100573.19;4121368;28;20043;-71
2023/06/16 00:29:40;;;;;;;9.63;4.75;;;;;;;22.27;37.38;100567.16;4114316;28;20101;-71
2023/06/16 00:31:45;;;;;;;8.93;4.57;;;;;;;22.26;37.41;100570.72;4114781;28;20098;-71
2023/06/16 00:33:48;;;;;;;8.48;4.75;;;;;;;22.28;37.22;100568.00;4096992;28;20516;-71
2023/06/16 00:35:51;;;;;;;7.75;4.32;;;;;;;22.27;37.23;100561.88;4098111;28;20114;-71
2023/06/16 00:37:54;;;;;;;11.25;4.55;;;;;;;22.22;37.89;100561.13;4114744;28;20081;-71
2023/06/16 00:39:57;;;;;;;9.10;4.50;;;;;;;22.17;38.29;100563.09;4081164;29;20079;-71
2023/06/16 00:42:00;;;;;;;9.38;4.72;;;;;;;22.12;39.21;100557.94;4097982;28;20089;-72
2023/06/16 00:44:03;;;;;;;9.50;4.72;;;;;;;22.06;39.93;100557.25;4095912;28;20192;-71
2023/06/16 00:46:07;;;;;;;7.20;4.18;;;;;;;21.98;39.78;100570.75;4111174;28;20046;-72
2023/06/16 00:48:13;;;;;;;9.75;5.50;;;;;;;21.99;38.56;100566.31;4096510;28;20059;-72
2023/06/16 00:50:16;;;;;;;7.80;4.13;;;;;;;21.97;38.32;100569.84;4096111;28;20053;-72
2023/06/16 00:52:21;;;;;;;6.13;3.90;;;;;;;21.99;38.50;100569.84;4095675;28;20040;-72
2023/06/16 00:54:26;;;;;;;8.80;4.68;;;;;;;21.97;39.06;100569.00;4097499;28;20546;-72
2023/06/16 00:56:30;;;;;;;8.60;4.57;;;;;;;21.93;39.52;100570.91;4099763;28;20066;-71
2023/06/16 00:58:39;;;;;;;6.60;4.28;;;;;;;21.92;40.10;100568.28;4111341;28;20054;-71
2023/06/16 01:00:42;;;;;;;6.20;4.20;;;;;;;21.89;40.46;100565.72;4092517;28;20106;-72
2023/06/16 01:02:45;;;;;;;7.30;4.57;;;;;;;21.81;39.80;100568.63;4115017;28;20046;-71
2023/06/16 01:04:51;;;;;;;7.83;4.83;;;;;;;21.79;40.06;100573.09;4097128;28;20039;-71
2023/06/16 01:07:03;;;;;;;5.45;3.65;;;;;;;21.74;40.66;100575.00;4100824;28;20290;-71
2023/06/16 01:09:12;;;;;;;11.30;4.75;;;;;;;21.67;40.88;100571.69;4081080;29;20140;-71
2023/06/16 01:11:27;;;;;;;9.40;4.15;;;;;;;21.60;41.86;100571.00;4097976;28;20094;-71
2023/06/16 01:13:42;;;;;;;7.47;4.43;;;;;;;21.53;41.95;100568.59;4113713;28;20504;-71
2023/06/16 01:15:47;;;;;;;10.85;4.70;;;;;;;21.41;42.36;100569.78;4080943;29;20115;-70
2023/06/16 01:17:54;;;;;;;8.05;4.65;;;;;;;21.40;42.12;100573.34;4114587;28;20058;-71
2023/06/16 01:20:06;;;;;;;12.57;4.70;;;;;;;21.39;41.71;100579.53;4096961;28;20039;-72
2023/06/16 01:22:16;;;;;;;10.57;5.75;;;;;;;21.30;40.25;100577.16;4108289;28;20489;-71
2023/06/16 01:24:23;;;;;;;10.57;4.95;;;;;;;21.28;40.11;100575.41;4111822;28;20053;-71
2023/06/16 01:26:28;;;;;;;11.50;4.97;;;;;;;21.37;39.82;100579.56;4095553;28;20225;-70
2023/06/16 01:28:35;;;;;;;7.30;4.88;;;;;;;21.37;39.72;100576.06;4095096;28;20049;-71
2023/06/16 01:30:45;;;;;;;9.48;4.65;;;;;;;21.30;39.77;100578.00;4106243;28;20093;-71
2023/06/16 01:32:50;;;;;;;9.43;4.15;;;;;;;21.34;39.68;100577.03;4096620;28;20126;-71
2023/06/16 01:34:54;;;;;;;9.30;4.40;;;;;;;21.34;39.74;100573.50;4097493;28;20039;-70
2023/06/16 01:36:59;;;;;;;11.13;4.60;;;;;;;21.31;39.79;100578.91;4112920;28;20066;-71
2023/06/16 01:39:03;;;;;;;11.63;4.68;;;;;;;21.24;39.63;100573.75;4112253;28;20038;-70
2023/06/16 01:41:09;;;;;;;10.75;4.57;;;;;;;21.21;40.10;100579.13;4096576;28;20062;-70
2023/06/16 01:43:13;;;;;;;8.05;4.03;;;;;;;21.19;40.53;100574.81;4112384;28;20121;-70
2023/06/16 01:45:17;;;;;;;12.63;4.20;;;;;;;21.18;40.41;100581.00;4112628;28;20078;-70
2023/06/16 01:47:21;;;;;;;13.77;4.95;;;;;;;21.21;40.03;100578.28;4080631;29;20307;-70
2023/06/16 01:49:24;;;;;;;7.28;4.63;;;;;;;21.24;39.76;100583.47;4107957;28;20051;-70
2023/06/16 01:51:28;;;;;;;8.10;4.97;;;;;;;21.21;39.94;100580.94;4113896;28;20061;-70
2023/06/16 01:53:30;;;;;;;10.52;4.47;;;;;;;21.21;39.55;100573.84;4101811;28;20553;-70
2023/06/16 01:55:33;;;;;;;8.20;5.00;;;;;;;21.24;39.26;100572.91;4098264;28;20035;-70
2023/06/16 01:57:38;;;;;;;7.55;5.35;;;;;;;21.21;39.42;100573.84;4115390;28;20066;-70
2023/06/16 01:59:41;;;;;;;7.60;4.60;;;;;;;21.16;39.63;100577.53;4099848;28;20089;-70
2023/06/16 02:01:50;;;;;;;8.30;4.75;;;;;;;21.14;39.43;100577.56;4098493;28;20094;-71
2023/06/16 02:03:59;;;;;;;8.50;4.60;;;;;;;21.15;39.37;100576.66;4117936;28;20049;-71
2023/06/16 02:06:08;;;;;;;12.25;5.18;;;;;;;21.19;38.70;100582.75;4117500;28;20053;-72
2023/06/16 02:08:17;;;;;;;9.00;4.75;;;;;;;21.12;38.87;100581.19;4098676;28;20043;-72
2023/06/16 02:10:23;;;;;;;6.68;4.15;;;;;;;21.08;38.86;100576.00;4119017;28;20047;-72
2023/06/16 02:12:26;;;;;;;5.82;4.22;;;;;;;21.08;38.94;100580.38;4100182;28;20035;-71
2023/06/16 02:14:31;;;;;;;8.80;4.55;;;;;;;21.07;38.79;100578.66;4100085;28;20039;-71
2023/06/16 02:16:37;;;;;;;7.20;4.30;;;;;;;21.00;38.82;100577.09;4100162;28;20448;-71
2023/06/16 02:18:40;;;;;;;10.20;4.65;;;;;;;21.04;38.62;100578.72;4103287;28;20061;-71
2023/06/16 02:20:43;;;;;;;10.32;4.50;;;;;;;21.05;38.25;100581.34;4101719;28;20135;-72
2023/06/16 02:22:46;;;;;;;9.05;4.10;;;;;;;20.91;38.36;100581.72;4100984;28;20035;-71
2023/06/16 02:24:49;;;;;;;12.35;5.20;;;;;;;20.93;38.29;100574.59;4098979;28;20074;-71
2023/06/16 02:26:54;;;;;;;13.77;4.93;;;;;;;20.89;38.40;100580.88;4116975;28;20034;-71
2023/06/16 02:28:57;;;;;;;10.40;4.95;;;;;;;20.88;38.40;100581.81;4097364;28;20118;-71
2023/06/16 02:31:01;;;;;;;7.70;5.10;;;;;;;20.92;38.18;100588.75;4111425;28;20034;-71
2023/06/16 02:33:04;;;;;;;;;;;;;;;20.75;38.68;100575.13;4120669;28;20046;-71
2023/06/16 02:35:09;;;;;;;7.57;5.07;;;;;;;20.74;38.64;100584.81;4072114;29;19931;-71
2023/06/16 02:37:13;;;;;;;7.30;3.95;;;;;;;20.72;38.50;100580.47;4117018;28;20042;-71
2023/06/16 02:39:17;;;;;;;7.85;4.43;;;;;;;20.75;38.46;100583.91;4116125;28;20051;-71
2023/06/16 02:41:20;;;;;;;7.60;4.15;;;;;;;20.77;38.12;100583.84;4097347;28;20588;-72
2023/06/16 02:43:23;;;;;;;6.63;4.45;;;;;;;20.75;38.10;100580.41;4101154;28;20098;-71
2023/06/16 02:45:26;;;;;;;7.00;4.85;;;;;;;20.68;37.86;100579.69;4100500;28;20049;-72
2023/06/16 02:47:30;;;;;;;9.00;4.07;;;;;;;20.64;37.92;100583.28;4098831;28;20509;-71
2023/06/16 02:49:33;;;;;;;;;;;;;;;20.54;38.13;100587.91;4091433;28;20497;-71
2023/06/16 02:51:36;;;;;;;8.45;4.70;;;;;;;20.60;37.97;100584.25;4092565;28;19930;-71
2023/06/16 02:53:40;;;;;;;7.45;4.55;;;;;;;20.56;38.06;100591.41;4093903;28;20070;-70
2023/06/16 02:55:44;;;;;;;7.65;4.68;;;;;;;20.53;38.49;100599.41;4093145;28;20036;-71
2023/06/16 02:57:47;;;;;;;11.00;5.07;;;;;;;20.54;37.93;100590.56;4094648;28;20066;-71
2023/06/16 02:59:50;;;;;;;9.30;4.85;;;;;;;20.54;38.15;100584.41;4094960;28;20062;-70
2023/06/16 03:01:53;;;;;;;6.97;4.05;;;;;;;20.37;38.47;100600.66;4077566;29;20046;-70
2023/06/16 03:04:03;;;;;;;7.03;3.90;;;;;;;20.35;38.66;100594.56;4110908;28;20137;-70
2023/06/16 03:06:29;;;;;;;14.57;4.80;;;;;;;20.28;39.02;100593.88;4095301;28;20042;-70
2023/06/16 03:08:33;;;;;;;6.38;4.28;;;;;;;20.27;38.85;100596.50;4095189;28;20138;-70
2023/06/16 03:10:36;;;;;;;7.50;4.68;;;;;;;20.29;39.17;100597.34;4098802;28;20125;-70
2023/06/16 03:12:44;;;;;;;8.65;4.50;;;;;;;20.17;39.34;100593.25;4115301;28;20035;-70
2023/06/16 03:14:47;;;;;;;9.50;4.45;;;;;;;20.14;39.63;100594.16;4099844;28;20122;-71
2023/06/16 03:16:53;;;;;;;9.77;4.68;;;;;;;20.10;39.73;100584.59;4083995;29;20149;-70
2023/06/16 03:18:57;;;;;;;;;;;;;;;20.01;40.31;100592.72;4099788;28;20098;-70
2023/06/16 03:21:02;;;;;;;7.30;4.38;;;;;;;19.97;40.79;100591.06;4098383;28;20364;-70
2023/06/16 03:23:11;;;;;;;7.18;4.22;;;;;;;20.02;40.13;100597.09;4101341;28;20094;-70
2023/06/16 03:25:15;;;;;;;10.50;4.35;;;;;;;19.98;40.33;100596.28;4120222;28;20046;-70
2023/06/16 03:27:21;;;;;;;9.98;4.47;;;;;;;19.96;40.59;100590.19;4099095;28;20051;-70
2023/06/16 03:29:32;;;;;;;8.90;4.10;;;;;;;20.02;40.85;100597.97;4099899;28;20039;-70
2023/06/16 03:31:37;;;;;;;11.05;5.00;;;;;;;20.09;40.14;100600.47;4101076;28;20527;-70
2023/06/16 03:33:43;;;;;;;10.43;5.07;;;;;;;20.03;40.40;100599.72;4104613;28;20074;-70
2023/06/16 03:35:48;;;;;;;8.45;4.82;;;;;;;19.99;40.80;100602.44;4116349;28;20130;-71
2023/06/16 03:38:05;;;;;;;7.53;4.55;;;;;;;19.93;40.82;100611.38;4102551;28;20039;-71
2023/06/16 03:40:11;;;;;;;7.43;4.60;;;;;;;19.93;40.69;100605.22;4105792;28;20110;-71
2023/06/16 03:42:15;;;;;;;9.68;4.50;;;;;;;19.93;40.92;100600.81;4100306;28;20089;-71
2023/06/16 03:44:18;;;;;;;7.28;4.60;;;;;;;19.91;40.53;100601.75;4117659;28;20047;-70
2023/06/16 03:46:20;;;;;;;7.18;4.53;;;;;;;19.88;41.11;100603.53;4119996;28;20442;-70
2023/06/16 03:48:24;;;;;;;7.35;4.43;;;;;;;19.93;41.15;100606.09;4085058;29;20043;-70
2023/06/16 03:50:32;;;;;;;7.90;4.03;;;;;;;19.86;40.73;100600.06;4103584;28;20047;-71
2023/06/16 03:52:35;;;;;;;9.98;4.90;;;;;;;19.87;40.97;100596.53;4121479;28;20039;-71
2023/06/16 03:54:39;;;;;;;11.73;4.68;;;;;;;19.85;41.14;100598.31;4101689;28;21295;-71
2023/06/16 03:56:42;;;;;;;;;;;;;;;19.77;40.73;100602.91;4102953;28;20031;-71
2023/06/16 03:58:48;;;;;;;6.82;4.32;;;;;;;19.85;40.52;100600.97;4099886;28;19930;-71
2023/06/16 04:00:51;;;;;;;8.93;5.13;;;;;;;19.81;40.96;100601.94;4102436;28;20070;-71
2023/06/16 04:02:58;;;;;;;8.68;4.45;;;;;;;19.81;40.46;100607.22;4121820;28;20039;-71
2023/06/16 04:05:02;;;;;;;7.05;4.75;;;;;;;19.78;40.70;100609.91;4100560;28;20378;-71
2023/06/16 04:07:11;;;;;;;9.05;4.53;;;;;;;19.73;41.24;100609.13;4102999;28;20043;-71
2023/06/16 04:09:15;;;;;;;10.90;5.00;;;;;;;19.83;41.06;100609.81;4085051;29;20051;-73
2023/06/16 04:11:21;;;;;;;7.68;5.00;;;;;;;19.77;40.62;100604.63;4096045;28;20043;-71
2023/06/16 04:13:24;;;;;;;8.85;4.43;;;;;;;19.74;41.24;100610.00;4098052;28;20078;-71
2023/06/16 04:15:27;;;;;;;9.75;4.72;;;;;;;19.69;41.14;100608.31;4100155;28;20047;-71
2023/06/16 04:17:31;;;;;;;8.45;4.68;;;;;;;19.71;40.91;100608.28;4082460;29;20621;-71
2023/06/16 04:19:34;;;;;;;12.52;5.85;;;;;;;19.77;40.85;100615.19;4106679;28;20055;-72
2023/06/16 04:21:37;;;;;;;7.80;5.07;;;;;;;19.77;41.23;100613.44;4109508;28;20042;-71
2023/06/16 04:23:40;;;;;;;6.60;4.30;;;;;;;19.74;41.30;100613.47;4113365;28;20038;-72
2023/06/16 04:25:45;;;;;;;7.53;4.10;;;;;;;19.65;41.41;100606.63;4102303;28;20428;-71
2023/06/16 04:27:50;;;;;;;11.07;4.72;;;;;;;19.65;41.55;100611.91;4107992;28;20038;-71
2023/06/16 04:29:54;;;;;;;9.65;4.80;;;;;;;19.69;41.35;100615.38;4101542;28;20630;-71
2023/06/16 04:32:00;;;;;;;10.20;4.63;;;;;;;19.64;41.56;100609.31;4086876;29;20065;-71
2023/06/16 04:34:17;;;;;;;8.18;4.38;;;;;;;19.65;41.61;100611.06;4099912;28;20473;-71
2023/06/16 04:36:20;;;;;;;7.97;4.25;;;;;;;19.67;41.63;100614.53;4099673;28;20051;-71
2023/06/16 04:38:25;;;;;;;7.57;4.65;;;;;;;19.75;41.88;100617.88;4102938;28;20050;-71
2023/06/16 04:40:30;;;;;;;10.15;4.55;;;;;;;19.78;41.72;100617.81;4099976;28;20043;-73
2023/06/16 04:42:33;;;;;;;8.38;5.18;;;;;;;19.78;41.38;100616.94;4084677;29;20095;-72
2023/06/16 04:44:40;;;;;;;9.15;4.57;;;;;;;19.78;40.90;100612.56;4116038;28;20057;-72
2023/06/16 04:46:43;;;;;;;11.60;5.00;;;;;;;19.73;41.17;100611.78;4109420;28;20512;-73
2023/06/16 04:49:27;;;;;;;11.77;4.60;;;;;;;19.71;41.31;100613.56;4111161;28;20041;-68
2023/06/16 04:51:30;;;;;;;11.77;4.53;;;;;;;19.78;41.32;100617.81;4098343;28;20039;-67
2023/06/16 04:53:34;;;;;;;12.05;5.25;;;;;;;19.88;41.31;100616.72;4113773;28;20039;-67
2023/06/16 04:55:37;;;;;;;10.50;4.85;;;;;;;19.80;41.91;100610.78;4115048;28;20038;-67
2023/06/16 04:57:40;;;;;;;8.93;5.32;;;;;;;19.94;41.90;100614.88;4112061;28;20035;-67
2023/06/16 04:59:44;;;;;;;7.68;4.00;;;;;;;19.93;41.88;100615.75;4111195;28;20054;-68
2023/06/16 05:01:47;;;;;;;7.65;4.20;;;;;;;20.05;41.54;100616.38;4109838;28;20034;-67
2023/06/16 05:03:50;;;;;;;10.60;4.93;;;;;;;20.09;41.94;100617.16;4114135;28;20031;-67
2023/06/16 05:05:53;;;;;;;6.57;4.07;;;;;;;20.19;41.96;100617.81;4096121;28;20036;-67
2023/06/16 05:07:56;;;;;;;9.63;3.80;;;;;;;20.24;41.54;100621.22;4115106;28;20035;-67
2023/06/16 05:10:01;;;;;;;10.35;4.85;;;;;;;20.36;41.32;100620.94;4101916;28;20097;-66
2023/06/16 05:12:05;;;;;;;9.25;5.25;;;;;;;20.37;41.09;100622.69;4100753;28;20043;-67
2023/06/16 05:14:08;;;;;;;9.77;4.70;;;;;;;20.30;41.47;100625.50;4076181;29;20553;-66
2023/06/16 05:16:13;;;;;;;9.45;4.85;;;;;;;20.30;41.63;100620.22;4096647;28;20035;-66
2023/06/16 05:18:16;;;;;;;8.50;5.28;;;;;;;20.42;41.54;100619.06;4114872;28;20034;-66
2023/06/16 05:20:19;;;;;;;10.55;6.03;;;;;;;20.46;41.34;100624.22;4092508;28;20098;-67
2023/06/16 05:22:23;;;;;;;16.13;5.90;;;;;;;20.42;41.36;100622.56;4104845;28;20078;-67
2023/06/16 05:24:28;;;;;;;16.05;5.95;;;;;;;20.52;41.55;100618.78;4102611;28;20095;-67
2023/06/16 05:26:33;;;;;;;13.35;5.95;;;;;;;20.45;41.32;100619.84;4098221;28;20107;-67
2023/06/16 05:28:36;;;;;;;15.73;5.85;;;;;;;20.55;41.41;100623.13;4109663;28;20066;-67
2023/06/16 05:30:39;;;;;;;11.07;5.72;;;;;;;20.51;41.27;100626.75;4103442;28;20074;-67
2023/06/16 05:32:43;;;;;;;15.35;5.35;;;;;;;20.55;41.40;100621.34;4092310;28;20734;-67
2023/06/16 05:34:47;;;;;;;16.05;5.60;;;;;;;20.56;41.35;100623.09;4096638;28;20035;-67
2023/06/16 05:36:50;;;;;;;19.60;7.03;;;;;;;20.64;41.32;100622.91;4100241;28;20039;-67
2023/06/16 05:38:54;;;;;;;11.88;5.90;;;;;;;20.62;41.20;100629.13;4097334;28;20062;-67
2023/06/16 05:40:57;;;;;;;10.82;5.00;;;;;;;20.62;41.28;100623.84;4108376;28;20046;-67
2023/06/16 05:43:00;;;;;;;13.63;5.50;;;;;;;20.70;41.16;100629.84;4091687;28;20090;-67
2023/06/16 05:45:04;;;;;;;18.17;5.65;;;;;;;20.78;41.18;100629.63;4092235;28;20046;-67
2023/06/16 05:47:08;;;;;;;10.10;4.90;;;;;;;20.77;40.86;100623.50;4112227;28;20530;-67
2023/06/16 05:49:14;;;;;;;15.38;5.75;;;;;;;20.78;40.76;100624.34;4094129;28;20509;-66
2023/06/16 05:51:17;;;;;;;9.40;4.70;;;;;;;20.68;41.49;100626.38;4092808;28;20043;-66
2023/06/16 05:53:20;;;;;;;8.55;4.10;;;;;;;20.75;41.14;100620.91;4109531;28;20038;-66
2023/06/16 05:55:23;;;;;;;12.88;4.53;;;;;;;20.93;40.91;100632.75;4105937;28;20063;-66
2023/06/16 05:57:31;;;;;;;13.25;5.20;;;;;;;21.17;40.32;100625.06;4095543;28;20118;-66
2023/06/16 05:59:36;;;;;;;13.40;5.53;;;;;;;21.21;39.96;100624.09;4110800;28;20042;-65
2023/06/16 06:01:39;;;;;;;15.43;5.70;;;;;;;21.19;40.14;100630.34;4094435;28;20346;-66
2023/06/16 06:03:44;;;;;;;11.18;5.65;;;;;;;21.20;40.02;100638.25;4111448;28;20082;-64
2023/06/16 06:05:50;;;;;;;11.98;6.10;;;;;;;21.16;40.52;100639.22;4112362;28;20122;-66
2023/06/16 06:07:53;;;;;;;15.50;8.05;;;;;;;21.29;39.95;100637.13;4096845;28;20039;-66
2023/06/16 06:09:57;;;;;;;14.93;7.32;;;;;;;21.31;39.99;100634.44;4101365;28;20034;-64
2023/06/16 06:12:00;;;;;;;18.80;9.43;;;;;;;21.58;38.84;100648.66;4097489;28;20525;-64
2023/06/16 06:14:04;;;;;;;;;;;;;;;21.58;38.86;100651.31;4097285;28;20039;-65
2023/06/16 06:16:07;;;;;;;19.42;7.88;;;;;;;21.39;39.28;100638.59;4115815;28;19922;-65
2023/06/16 06:18:10;;;;;;;17.08;7.68;;;;;;;21.48;39.38;100648.06;4100052;28;20090;-65
2023/06/16 06:20:17;;;;;;;17.38;5.97;;;;;;;21.48;39.71;100645.41;4097927;28;20043;-65
2023/06/16 06:22:21;;;;;;;11.75;6.05;;;;;;;21.55;39.97;100652.28;4112030;28;20037;-65
2023/06/16 06:24:25;;;;;;;7.28;4.80;;;;;;;21.69;39.19;100656.31;4099030;28;20501;-65
2023/06/16 06:26:29;;;;;;;18.85;7.80;;;;;;;21.87;38.84;100655.75;4081340;29;20143;-65
2023/06/16 06:28:32;;;;;;;16.67;8.02;;;;;;;21.97;39.10;100659.88;4094880;28;20045;-65
2023/06/16 06:30:36;;;;;;;16.73;8.83;;;;;;;22.08;38.99;100661.34;4088624;28;20067;-65
2023/06/16 06:32:40;;;;;;;;;;;;;;;22.19;38.33;100666.31;4109959;28;20042;-66
2023/06/16 06:34:44;;;;;;;20.88;9.02;;;;;;;22.23;38.13;100666.16;4098185;28;19965;-64
2023/06/16 06:36:48;;;;;;;22.85;11.52;;;;;;;22.17;38.13;100673.44;4103569;28;20041;-64
2023/06/16 06:38:54;;;;;;;17.27;9.68;;;;;;;22.05;38.83;100679.94;4094811;28;20079;-64
2023/06/16 06:40:58;;;;;;;12.90;5.90;;;;;;;22.10;38.59;100668.31;4085781;29;20036;-65
2023/06/16 06:43:02;;;;;;;15.57;6.85;;;;;;;22.07;38.41;100675.50;4106843;28;20038;-64
2023/06/16 06:45:14;;;;;;;18.65;6.93;;;;;;;22.22;38.34;100676.81;4093266;28;20039;-64
2023/06/16 06:47:17;;;;;;;14.68;5.88;;;;;;;22.25;38.31;100680.25;4105295;28;20058;-65
2023/06/16 06:49:23;;;;;;;15.77;7.40;;;;;;;22.34;38.10;100670.28;4099759;28;20035;-64
2023/06/16 06:51:26;;;;;;;16.80;6.47;;;;;;;22.47;37.83;100675.16;4098990;28;20043;-64
2023/06/16 06:53:29;;;;;;;16.58;6.13;;;;;;;22.41;38.27;100682.41;4131644;28;20042;-64
2023/06/16 06:55:33;;;;;;;10.82;5.45;;;;;;;22.30;38.42;100683.59;4114619;28;20304;-64
2023/06/16 06:57:36;;;;;;;10.60;5.97;;;;;;;22.50;37.80;100679.47;4115414;28;20101;-64
2023/06/16 06:59:41;;;;;;;13.32;5.50;;;;;;;22.48;38.65;100681.31;4115207;28;20485;-64
2023/06/16 07:01:44;;;;;;;11.80;4.55;;;;;;;22.53;38.77;100684.69;4111065;28;20038;-65
2023/06/16 07:03:47;;;;;;;15.32;5.80;;;;;;;22.64;38.19;100684.34;4097082;28;21661;-65
2023/06/16 07:05:50;;;;;;;23.40;6.65;;;;;;;22.90;37.79;100685.28;4109602;28;20077;-65
2023/06/16 07:07:53;;;;;;;12.38;6.28;;;;;;;22.89;37.70;100687.03;4098156;28;20067;-65
2023/06/16 07:09:56;;;;;;;7.68;5.10;;;;;;;22.82;38.00;100680.22;4115256;28;20043;-65
2023/06/16 07:12:00;;;;;;;13.18;5.05;;;;;;;22.84;38.56;100691.66;4094001;28;20104;-65
2023/06/16 07:14:04;;;;;;;14.77;5.97;;;;;;;23.04;37.91;100683.00;4125471;28;20052;-65
2023/06/16 07:16:07;;;;;;;19.15;5.90;;;;;;;23.07;37.90;100682.03;4121347;28;20035;-65
2023/06/16 07:18:10;;;;;;;10.43;5.85;;;;;;;23.24;37.40;100692.09;4121438;28;20039;-65
2023/06/16 07:20:14;;;;;;;10.85;5.97;;;;;;;23.29;36.69;100691.03;4098556;28;20440;-65
2023/06/16 07:22:17;;;;;;;16.38;6.68;;;;;;;23.34;36.67;100688.22;4111133;28;20042;-64
2023/06/16 07:24:20;;;;;;;14.15;5.70;;;;;;;23.27;35.73;100695.50;4100469;28;20031;-65
2023/06/16 07:26:23;;;;;;;13.15;5.57;;;;;;;23.22;35.86;100694.81;4112300;28;20058;-64
2023/06/16 07:28:28;;;;;;;14.30;5.88;;;;;;;23.37;35.37;100692.56;4091311;28;20047;-64
2023/06/16 07:30:30;;;;;;;12.73;5.63;;;;;;;23.50;35.08;100691.19;4090669;28;20457;-63
2023/06/16 07:32:35;;;;;;;10.68;5.97;;;;;;;23.31;35.85;100698.94;4093630;28;20039;-65
2023/06/16 07:34:41;;;;;;;14.82;6.80;;;;;;;23.38;35.41;100699.56;4110265;28;20101;-65
2023/06/16 07:36:44;;;;;;;13.98;6.03;;;;;;;23.27;36.51;100698.16;4104823;28;20042;-65
2023/06/16 07:38:47;;;;;;;12.02;5.65;;;;;;;23.25;36.43;100694.72;4112887;28;20389;-64
2023/06/16 07:40:50;;;;;;;20.00;5.90;;;;;;;23.30;36.60;100703.34;4106531;28;20428;-64
2023/06/16 07:42:53;;;;;;;15.52;5.97;;;;;;;23.44;36.44;100699.38;4120818;28;20054;-65
2023/06/16 07:44:57;;;;;;;16.38;6.35;;;;;;;23.59;36.61;100696.16;4124583;28;20042;-65
2023/06/16 07:47:00;;;;;;;14.07;5.43;;;;;;;23.59;36.04;100697.94;4102753;28;20039;-65
2023/06/16 07:49:03;;;;;;;8.00;4.97;;;;;;;23.63;36.17;100696.94;4109746;28;20039;-65
2023/06/16 07:51:06;;;;;;;14.38;6.88;;;;;;;23.90;34.87;100692.38;4106964;28;20524;-65
2023/06/16 07:53:09;;;;;;;16.52;5.95;;;;;;;23.83;35.24;100688.19;4124997;28;20042;-65
2023/06/16 07:55:12;;;;;;;8.13;4.20;;;;;;;23.74;35.68;100692.06;4115753;28;21712;-65
2023/06/16 07:57:15;;;;;;;9.68;5.43;;;;;;;23.83;36.00;100691.75;4110346;28;20050;-65
2023/06/16 07:59:18;;;;;;;11.07;5.75;;;;;;;24.01;35.53;100692.84;4113319;28;20496;-65
2023/06/16 08:01:22;;;;;;;9.73;4.72;;;;;;;24.06;35.83;100692.69;4087493;29;20054;-65
2023/06/16 08:03:25;;;;;;;13.80;6.40;;;;;;;24.26;34.98;100694.56;4122526;28;20065;-64
2023/06/16 08:05:29;;;;;;;10.00;4.73;;;;;;;24.21;35.03;100685.91;4118041;28;20043;-64
2023/06/16 08:07:32;;;;;;;11.18;4.60;;;;;;;24.30;34.84;100685.56;4112628;28;20077;-65
2023/06/16 08:09:35;;;;;;;12.45;5.15;;;;;;;24.45;34.23;100689.38;4114644;28;20134;-64
2023/06/16 08:11:38;;;;;;;13.38;5.90;;;;;;;24.61;34.17;100688.81;4107240;28;20195;-64
2023/06/16 08:13:41;;;;;;;8.63;4.67;;;;;;;24.39;33.49;100684.31;4119208;28;20038;-65
2023/06/16 08:15:44;;;;;;;14.60;4.75;;;;;;;24.53;33.06;100686.41;4094144;28;20306;-65
2023/06/16 08:17:49;;;;;;;14.10;4.78;;;;;;;24.46;33.79;100687.59;4097588;28;20102;-65
2023/06/16 08:19:53;;;;;;;10.70;5.00;;;;;;;24.47;33.73;100697.31;4096484;28;20046;-65
2023/06/16 08:21:56;;;;;;;11.82;4.72;;;;;;;24.51;33.57;100690.94;4118203;28;20039;-65
2023/06/16 08:24:00;;;;;;;13.02;7.15;;;;;;;24.56;33.36;100691.59;4120065;28;20298;-75
2023/06/16 08:26:04;;;;;;;6.40;4.40;;;;;;;24.62;33.42;100702.03;4109277;28;20093;-73
2023/06/16 08:28:08;;;;;;;7.97;4.25;;;;;;;24.66;32.61;100693.03;4100125;28;20169;-74
2023/06/16 08:30:15;;;;;;;12.68;4.30;;;;;;;24.84;31.57;100695.84;4100927;28;20073;-76
2023/06/16 08:32:18;;;;;;;10.88;4.13;;;;;;;24.77;32.59;100683.75;4110782;28;20043;-74
2023/06/16 08:34:22;;;;;;;15.23;5.80;;;;;;;25.02;32.79;100684.41;4112452;28;20054;-74
2023/06/16 08:36:25;;;;;;;9.90;4.72;;;;;;;25.00;33.08;100688.06;4122449;28;20070;-75
2023/06/16 08:38:28;;;;;;;8.98;4.65;;;;;;;24.95;32.20;100682.09;4096478;28;20070;-75
2023/06/16 08:40:31;;;;;;;12.77;4.47;;;;;;;24.92;31.58;100681.28;4108478;28;20127;-74
2023/06/16 08:42:37;;;;;;;10.57;4.22;;;;;;;25.03;30.19;100685.31;4105320;28;20067;-74
2023/06/16 08:44:40;;;;;;;6.75;3.63;;;;;;;24.89;31.11;100688.53;4105125;28;20047;-75
2023/06/16 08:46:43;;;;;;;8.23;4.07;;;;;;;25.06;31.61;100686.03;4107020;28;20080;-75
2023/06/16 08:48:46;;;;;;;10.85;4.63;;;;;;;25.16;31.56;100693.59;4105764;28;20353;-75
2023/06/16 08:50:52;;;;;;;7.60;4.00;;;;;;;25.13;31.59;100691.06;4107349;28;20034;-74
2023/06/16 08:52:57;;;;;;;6.97;4.40;;;;;;;25.23;31.05;100684.41;4112945;28;20133;-73
2023/06/16 08:55:01;;;;;;;9.55;4.53;;;;;;;25.37;31.00;100692.69;4114056;28;20038;-74
2023/06/16 08:57:07;;;;;;;;;;;;;;;25.45;30.68;100687.03;4093503;28;20131;-76
2023/06/16 08:59:11;;;;;;;10.55;5.45;;;;;;;25.40;31.16;100681.91;4108241;28;19940;-76
2023/06/16 09:01:14;;;;;;;11.73;4.82;;;;;;;25.52;30.55;100679.66;4107777;28;20046;-75
2023/06/16 09:03:19;;;;;;;8.48;4.70;;;;;;;25.55;30.98;100683.06;4109880;28;20061;-75
2023/06/16 09:05:25;;;;;;;13.30;4.53;;;;;;;25.51;31.39;100668.16;4107897;28;20039;-78
2023/06/16 09:07:41;;;;;;;9.60;5.03;;;;;;;25.61;31.18;100676.56;4110548;28;20069;-77
2023/06/16 09:09:44;;;;;;;7.95;3.90;;;;;;;25.50;30.95;100665.56;4105866;28;20050;-76
2023/06/16 09:12:03;;;;;;;10.05;4.13;;;;;;;25.49;31.02;100674.47;4110657;28;20078;-76
2023/06/16 09:14:13;;;;;;;9.30;4.53;;;;;;;25.56;31.35;100665.28;4109823;28;20047;-76
2023/06/16 09:16:17;;;;;;;9.07;4.30;;;;;;;25.77;31.58;100666.97;4090424;28;20375;-76
2023/06/16 09:18:20;;;;;;;11.10;4.35;;;;;;;26.05;31.00;100670.16;4109440;28;20498;-77
2023/06/16 09:20:24;;;;;;;7.90;4.22;;;;;;;26.11;29.55;100672.56;4109095;28;20674;-76
2023/06/16 09:22:29;;;;;;;9.35;4.60;;;;;;;25.94;29.93;100674.16;4109349;28;20043;-77
2023/06/16 09:24:35;;;;;;;8.82;4.30;;;;;;;25.98;28.88;100664.25;4089223;28;20043;-77
2023/06/16 09:26:39;;;;;;;8.52;4.15;;;;;;;25.96;28.24;100666.97;4111803;28;20546;-76
2023/06/16 09:28:47;;;;;;;7.20;3.95;;;;;;;26.04;28.16;100671.97;4113098;28;20093;-78
2023/06/16 09:31:05;;;;;;;7.53;4.43;;;;;;;26.05;28.35;100670.16;4111098;28;20049;-76
2023/06/16 09:33:31;;;;;;;6.68;3.67;;;;;;;26.00;29.23;100674.84;4104656;28;20062;-75
2023/06/16 09:35:41;;;;;;;7.15;3.78;;;;;;;25.96;29.12;100666.09;4111781;28;20629;-76
2023/06/16 09:37:45;;;;;;;15.55;3.65;;;;;;;26.05;29.01;100664.81;4111238;28;20050;-74